Time;durP1;ratioP1;P1;durP2;ratioP2;P2;SDS_P1;SDS_P2;PMS_P1;PMS_P2;Temp;Humidity;BMP_temperature;BMP_pressure;BME280_temperature;BME280_humidity;BME280_pressure;Samples;Min_cycle;Max_cycle;Signal;HPM_P1;HPM_P2
2022/08/25 00:00:12;;;;;;;4.05;3.13;;;;;;;;;;5062183;28;20216;-60
2022/08/25 00:02:40;;;;;;;3.00;2.80;;;;;;;;;;5073128;28;20201;-63
2022/08/25 00:05:22;;;;;;;4.28;3.40;;;;;;;;;;5063321;28;20216;-61
2022/08/25 00:07:49;;;;;;;4.95;3.28;;;;;;;;;;5071751;28;20201;-61
2022/08/25 00:10:16;;;;;;;4.57;2.97;;;;;;;;;;5088727;28;20229;-61
2022/08/25 00:12:44;;;;;;;4.25;2.85;;;;;;;;;;5062366;28;20209;-61
2022/08/25 00:15:12;;;;;;;3.50;3.20;;;;;;;;;;5069680;28;20754;-61
2022/08/25 00:17:40;;;;;;;4.13;3.47;;;;;;;;;;5075052;28;20250;-61
2022/08/25 00:20:08;;;;;;;3.47;3.00;;;;;;;;;;5085622;28;20205;-61
2022/08/25 00:22:36;;;;;;;5.93;3.50;;;;;;;;;;5076228;28;20634;-60
2022/08/25 00:25:03;;;;;;;4.97;3.28;;;;;;;;;;5054429;28;20693;-61
2022/08/25 00:27:30;;;;;;;4.07;3.47;;;;;;;;;;5077740;28;20205;-62
2022/08/25 00:29:59;;;;;;;3.45;3.17;;;;;;;;;;5062897;28;20200;-60
2022/08/25 00:32:26;;;;;;;4.55;3.67;;;;;;;;;;5079878;28;20205;-60
2022/08/25 00:34:54;;;;;;;4.70;3.40;;;;;;;;;;5077160;28;23115;-61
2022/08/25 00:37:21;;;;;;;3.38;3.10;;;;;;;;;;5081832;28;20221;-61
2022/08/25 00:39:48;;;;;;;4.72;3.50;;;;;;;;;;5068593;28;20949;-62
2022/08/25 00:42:19;;;;;;;6.55;3.67;;;;;;;;;;5063946;28;20220;-62
2022/08/25 00:44:46;;;;;;;4.30;3.78;;;;;;;;;;5074878;28;20217;-62
2022/08/25 00:47:14;;;;;;;3.88;3.53;;;;;;;;;;5054227;28;20212;-62
2022/08/25 00:49:47;;;;;;;5.72;3.80;;;;;;;;;;5067483;28;20811;-62
2022/08/25 00:52:19;;;;;;;4.20;3.80;;;;;;;;;;5061601;28;20523;-62
2022/08/25 00:54:49;;;;;;;4.68;4.15;;;;;;;;;;5064495;28;20237;-62
2022/08/25 00:57:18;;;;;;;4.28;3.88;;;;;;;;;;5057541;28;20233;-62
2022/08/25 01:00:00;;;;;;;5.88;4.32;;;;;;;;;;5063110;28;20205;-62
2022/08/25 01:02:27;;;;;;;4.80;3.95;;;;;;;;;;5081637;28;20203;-62
2022/08/25 01:04:54;;;;;;;4.97;4.07;;;;;;;;;;5062514;28;20670;-62
2022/08/25 01:07:22;;;;;;;5.13;4.18;;;;;;;;;;5061114;28;20209;-60
2022/08/25 01:09:52;;;;;;;4.00;3.60;;;;;;;;;;5059113;28;20217;-62
2022/08/25 01:12:20;;;;;;;4.95;3.60;;;;;;;;;;5076560;28;20224;-60
2022/08/25 01:14:48;;;;;;;3.67;3.38;;;;;;;;;;5075903;28;20262;-61
2022/08/25 01:17:16;;;;;;;4.63;4.07;;;;;;;;;;5071281;28;20232;-60
2022/08/25 01:19:43;;;;;;;4.65;4.03;;;;;;;;;;5059039;28;20238;-61
2022/08/25 01:22:11;;;;;;;5.07;4.15;;;;;;;;;;5069940;28;20225;-60
2022/08/25 01:24:46;;;;;;;3.88;3.58;;;;;;;;;;5065816;28;20222;-60
2022/08/25 01:27:13;;;;;;;4.38;3.97;;;;;;;;;;5067652;28;20301;-60
2022/08/25 01:29:41;;;;;;;5.65;4.03;;;;;;;;;;5087794;28;20197;-62
2022/08/25 01:32:11;;;;;;;4.88;4.10;;;;;;;;;;5070051;28;20233;-62
2022/08/25 01:34:41;;;;;;;4.88;3.92;;;;;;;;;;5076243;28;20212;-61
2022/08/25 01:37:09;;;;;;;4.43;3.95;;;;;;;;;;5062873;28;20250;-61
2022/08/25 01:39:41;;;;;;;5.47;3.97;;;;;;;;;;5060498;28;20200;-61
2022/08/25 01:42:17;;;;;;;4.63;4.05;;;;;;;;;;5040363;28;20233;-61
2022/08/25 01:44:45;;;;;;;4.07;3.78;;;;;;;;;;5049126;28;20258;-61
2022/08/25 01:47:13;;;;;;;4.40;4.00;;;;;;;;;;5048697;28;20209;-61
2022/08/25 01:49:40;;;;;;;5.15;4.00;;;;;;;;;;5052693;28;20289;-61
2022/08/25 01:52:17;;;;;;;4.50;3.90;;;;;;;;;;5075522;28;20706;-61
2022/08/25 01:54:45;;;;;;;4.55;4.15;;;;;;;;;;5049776;28;20251;-61
2022/08/25 01:57:12;;;;;;;4.60;4.20;;;;;;;;;;5052735;28;20301;-60
2022/08/25 01:59:40;;;;;;;5.28;4.13;;;;;;;;;;5063150;28;20275;-62
2022/08/25 02:02:07;;;;;;;4.50;4.10;;;;;;;;;;5059950;28;20233;-60
2022/08/25 02:04:36;;;;;;;4.47;4.07;;;;;;;;;;5066189;28;20196;-60
2022/08/25 02:07:05;;;;;;;4.43;4.00;;;;;;;;;;5056183;28;20233;-63
2022/08/25 02:09:32;;;;;;;5.63;4.68;;;;;;;;;;5054872;28;20266;-62
2022/08/25 02:12:00;;;;;;;5.15;4.63;;;;;;;;;;5050126;28;20266;-63
2022/08/25 02:14:27;;;;;;;4.95;4.35;;;;;;;;;;5063481;28;20263;-62
2022/08/25 02:16:55;;;;;;;4.88;4.38;;;;;;;;;;5071168;28;20232;-62
2022/08/25 02:19:23;;;;;;;4.90;4.45;;;;;;;;;;5060043;28;20212;-62
2022/08/25 02:21:51;;;;;;;4.97;4.57;;;;;;;;;;5053456;28;20224;-62
2022/08/25 02:24:18;;;;;;;5.20;4.70;;;;;;;;;;5052165;28;20261;-61
2022/08/25 02:26:45;;;;;;;5.53;4.93;;;;;;;;;;5056817;28;20251;-61
2022/08/25 02:29:13;;;;;;;5.60;4.95;;;;;;;;;;5073074;28;20209;-62
2022/08/25 02:31:40;;;;;;;5.30;4.50;;;;;;;;;;5047848;28;20278;-62
2022/08/25 02:34:08;;;;;;;5.22;4.72;;;;;;;;;;5069219;28;20209;-61
2022/08/25 02:36:37;;;;;;;7.32;5.22;;;;;;;;;;5058039;28;20224;-61
2022/08/25 02:39:06;;;;;;;5.25;4.72;;;;;;;;;;5051729;28;20205;-61
2022/08/25 02:41:33;;;;;;;5.47;5.03;;;;;;;;;;5056191;28;20220;-61
2022/08/25 02:44:02;;;;;;;5.32;4.82;;;;;;;;;;5051039;28;20595;-62
2022/08/25 02:46:29;;;;;;;6.00;5.20;;;;;;;;;;5060557;28;20203;-62
2022/08/25 02:48:57;;;;;;;5.70;5.20;;;;;;;;;;5041404;28;20660;-62
2022/08/25 02:51:28;;;;;;;5.78;5.28;;;;;;;;;;5055453;28;20236;-62
2022/08/25 02:53:56;;;;;;;6.68;6.07;;;;;;;;;;5055963;28;21244;-62
2022/08/25 02:56:24;;;;;;;6.60;5.90;;;;;;;;;;5052017;28;20766;-61
2022/08/25 02:58:52;;;;;;;6.53;5.78;;;;;;;;;;5052278;28;20233;-62
2022/08/25 03:01:20;;;;;;;5.63;5.10;;;;;;;;;;5060955;28;20307;-62
2022/08/25 03:03:54;;;;;;;6.40;5.80;;;;;;;;;;5059019;28;20210;-61
2022/08/25 03:06:23;;;;;;;6.18;5.57;;;;;;;;;;5054015;28;20215;-62
2022/08/25 03:08:51;;;;;;;6.78;6.07;;;;;;;;;;5054370;28;20213;-61
2022/08/25 03:11:19;;;;;;;6.67;6.07;;;;;;;;;;5055357;28;20267;-62
2022/08/25 03:13:49;;;;;;;7.38;6.47;;;;;;;;;;5059266;28;20216;-62
2022/08/25 03:16:17;;;;;;;6.63;5.65;;;;;;;;;;5059509;28;20307;-61
2022/08/25 03:18:45;;;;;;;6.93;6.07;;;;;;;;;;5057521;28;20208;-61
2022/08/25 03:21:12;;;;;;;7.73;6.27;;;;;;;;;;5054851;28;20602;-62
2022/08/25 03:23:42;;;;;;;6.70;6.00;;;;;;;;;;5049203;28;20216;-62
2022/08/25 03:28:55;;;;;;;7.90;6.53;;;;;;;;;;5071025;28;20208;-63
2022/08/25 03:31:23;;;;;;;7.05;5.75;;;;;;;;;;5047567;28;20256;-60
2022/08/25 03:33:51;;;;;;;7.10;6.35;;;;;;;;;;5051294;28;20654;-61
2022/08/25 03:36:18;;;;;;;7.27;6.57;;;;;;;;;;5047515;28;20243;-61
2022/08/25 03:38:46;;;;;;;7.65;6.60;;;;;;;;;;5069362;28;20201;-60
2022/08/25 03:41:31;;;;;;;6.78;6.18;;;;;;;;;;5054005;28;20583;-62
2022/08/25 03:43:59;;;;;;;9.27;6.70;;;;;;;;;;5066791;28;20224;-62
2022/08/25 03:46:28;;;;;;;7.75;7.05;;;;;;;;;;5069065;28;20271;-60
2022/08/25 03:48:56;;;;;;;7.35;6.68;;;;;;;;;;5055640;28;20214;-60
2022/08/25 03:51:25;;;;;;;7.60;6.78;;;;;;;;;;5069725;28;20648;-61
2022/08/25 03:53:53;;;;;;;8.57;6.63;;;;;;;;;;5059702;28;20285;-61
2022/08/25 03:56:20;;;;;;;8.35;6.32;;;;;;;;;;5051554;28;20774;-62
2022/08/25 03:58:47;;;;;;;9.73;6.70;;;;;;;;;;5059931;28;20197;-62
2022/08/25 04:01:15;;;;;;;6.73;6.03;;;;;;;;;;5058270;28;20226;-63
2022/08/25 04:03:44;;;;;;;8.70;7.43;;;;;;;;;;5062697;28;20203;-62
2022/08/25 04:06:11;;;;;;;8.33;7.53;;;;;;;;;;5058837;28;20271;-63
2022/08/25 04:08:39;;;;;;;8.23;7.27;;;;;;;;;;5060239;28;20739;-61
2022/08/25 04:11:11;;;;;;;8.43;7.63;;;;;;;;;;5057626;28;20224;-60
2022/08/25 04:13:41;;;;;;;8.90;7.28;;;;;;;;;;5057870;28;20197;-62
2022/08/25 04:16:19;;;;;;;8.45;7.55;;;;;;;;;;5066929;28;20212;-60
2022/08/25 04:18:48;;;;;;;7.73;7.03;;;;;;;;;;5057536;28;20825;-61
2022/08/25 04:21:16;;;;;;;8.18;7.38;;;;;;;;;;5062448;28;20260;-60
2022/08/25 04:23:44;;;;;;;6.88;6.18;;;;;;;;;;5053600;28;20537;-62
2022/08/25 04:26:14;;;;;;;9.07;6.82;;;;;;;;;;5057874;28;20209;-62
2022/08/25 04:28:41;;;;;;;8.25;7.43;;;;;;;;;;5055557;28;20658;-61
2022/08/25 04:31:10;;;;;;;8.38;7.53;;;;;;;;;;5059446;28;20220;-61
2022/08/25 04:33:38;;;;;;;9.57;8.23;;;;;;;;;;5070473;28;20221;-63
2022/08/25 04:36:06;;;;;;;10.95;8.63;;;;;;;;;;5053567;28;22142;-60
2022/08/25 04:38:38;;;;;;;11.25;8.82;;;;;;;;;;5072260;28;20201;-60
2022/08/25 04:41:06;;;;;;;9.73;8.10;;;;;;;;;;5060841;28;20221;-61
2022/08/25 04:43:35;;;;;;;10.03;8.83;;;;;;;;;;5075369;28;20262;-61
2022/08/25 04:46:11;;;;;;;9.87;8.50;;;;;;;;;;5055944;28;20209;-60
2022/08/25 04:48:39;;;;;;;10.57;8.83;;;;;;;;;;5058083;28;20204;-60
2022/08/25 04:51:07;;;;;;;9.80;8.70;;;;;;;;;;5059210;28;20231;-62
2022/08/25 04:53:35;;;;;;;10.27;8.83;;;;;;;;;;5060750;28;20732;-62
2022/08/25 04:56:05;;;;;;;10.13;8.53;;;;;;;;;;5086201;28;20265;-61
2022/08/25 04:58:32;;;;;;;10.57;8.60;;;;;;;;;;5081931;28;20220;-61
2022/08/25 05:01:04;;;;;;;10.57;9.40;;;;;;;;;;5062226;28;20220;-61
2022/08/25 05:03:31;;;;;;;11.10;9.37;;;;;;;;;;5058953;28;20295;-61
2022/08/25 05:05:59;;;;;;;10.70;9.30;;;;;;;;;;5075763;28;20258;-62
2022/08/25 05:08:26;;;;;;;11.20;9.90;;;;;;;;;;5060696;28;20205;-61
2022/08/25 05:10:55;;;;;;;11.20;9.55;;;;;;;;;;5085539;28;20221;-61
2022/08/25 05:13:23;;;;;;;11.23;10.03;;;;;;;;;;5060332;28;20554;-61
2022/08/25 05:15:52;;;;;;;12.45;8.98;;;;;;;;;;5062156;28;20213;-61
2022/08/25 05:18:20;;;;;;;10.68;9.55;;;;;;;;;;5073448;28;20248;-61
2022/08/25 05:20:48;;;;;;;11.57;10.32;;;;;;;;;;5064101;28;20217;-60
2022/08/25 05:23:16;;;;;;;11.35;8.93;;;;;;;;;;5061699;28;20222;-61
2022/08/25 05:25:43;;;;;;;12.57;9.37;;;;;;;;;;5063880;28;20232;-61
2022/08/25 05:28:13;;;;;;;9.88;8.85;;;;;;;;;;5062743;28;20205;-62
2022/08/25 05:30:42;;;;;;;11.07;9.57;;;;;;;;;;5056389;28;20374;-60
2022/08/25 05:33:10;;;;;;;10.38;9.20;;;;;;;;;;5067086;28;20214;-61
2022/08/25 05:35:38;;;;;;;10.20;9.20;;;;;;;;;;5063897;28;20208;-61
2022/08/25 05:38:06;;;;;;;11.15;8.90;;;;;;;;;;5073022;28;20224;-60
2022/08/25 05:40:41;;;;;;;11.65;9.73;;;;;;;;;;5059343;28;20836;-61
2022/08/25 05:43:09;;;;;;;12.80;9.63;;;;;;;;;;5062271;28;20204;-61
2022/08/25 05:45:36;;;;;;;12.00;9.48;;;;;;;;;;5075053;28;20197;-61
2022/08/25 05:48:04;;;;;;;13.43;10.68;;;;;;;;;;5086390;28;20254;-60
2022/08/25 05:50:32;;;;;;;13.38;10.55;;;;;;;;;;5060455;28;20253;-60
2022/08/25 05:52:59;;;;;;;12.43;10.07;;;;;;;;;;5058353;28;20205;-60
2022/08/25 05:55:27;;;;;;;12.38;9.77;;;;;;;;;;5057447;28;20718;-61
2022/08/25 05:57:54;;;;;;;14.00;10.80;;;;;;;;;;5056729;28;20229;-61
2022/08/25 06:00:21;;;;;;;12.88;11.00;;;;;;;;;;5057648;28;20263;-60
2022/08/25 06:02:49;;;;;;;16.85;10.63;;;;;;;;;;5071890;28;20204;-60
2022/08/25 06:05:18;;;;;;;14.23;12.50;;;;;;;;;;5073295;28;20197;-60
2022/08/25 06:07:46;;;;;;;14.02;11.45;;;;;;;;;;5056842;28;20304;-61
2022/08/25 06:10:14;;;;;;;15.20;13.05;;;;;;;;;;5061803;28;20581;-61
2022/08/25 06:12:46;;;;;;;18.45;13.88;;;;;;;;;;5058932;28;20813;-61
2022/08/25 06:15:15;;;;;;;15.73;13.02;;;;;;;;;;5056620;28;20211;-61
2022/08/25 06:17:43;;;;;;;14.43;12.35;;;;;;;;;;5067014;28;20248;-61
2022/08/25 06:20:24;;;;;;;16.35;12.57;;;;;;;;;;5062722;28;20227;-61
2022/08/25 06:22:52;;;;;;;14.10;11.43;;;;;;;;;;5060743;28;20200;-60
2022/08/25 06:25:21;;;;;;;13.10;11.00;;;;;;;;;;5066013;28;20674;-62
2022/08/25 06:27:48;;;;;;;13.85;11.55;;;;;;;;;;5055371;28;20205;-62
2022/08/25 06:30:18;;;;;;;15.98;12.18;;;;;;;;;;5057092;28;20205;-62
2022/08/25 06:32:54;;;;;;;12.70;10.30;;;;;;;;;;5053214;28;20208;-63
2022/08/25 06:35:22;;;;;;;12.52;11.13;;;;;;;;;;5059285;28;20242;-62
2022/08/25 06:37:49;;;;;;;14.15;10.95;;;;;;;;;;5073433;28;20227;-62
2022/08/25 06:40:16;;;;;;;12.00;10.77;;;;;;;;;;5067585;28;21676;-61
2022/08/25 06:42:47;;;;;;;11.82;10.18;;;;;;;;;;5072801;28;20731;-62
2022/08/25 06:45:15;;;;;;;10.75;9.65;;;;;;;;;;5058405;28;20205;-60
2022/08/25 06:47:42;;;;;;;11.60;9.13;;;;;;;;;;5052102;28;20254;-60
2022/08/25 06:50:12;;;;;;;11.48;9.10;;;;;;;;;;5053622;28;20577;-61
2022/08/25 06:52:39;;;;;;;9.23;8.32;;;;;;;;;;5073248;28;20677;-61
2022/08/25 06:55:07;;;;;;;11.35;9.15;;;;;;;;;;5068690;28;20201;-60
2022/08/25 06:57:34;;;;;;;10.00;8.50;;;;;;;;;;5060126;28;20225;-62
2022/08/25 07:00:07;;;;;;;10.45;9.35;;;;;;;;;;5076785;28;20204;-62
2022/08/25 07:02:37;;;;;;;10.07;9.07;;;;;;;;;;5069274;28;20252;-62
2022/08/25 07:05:05;;;;;;;10.27;9.18;;;;;;;;;;5059178;28;20205;-61
2022/08/25 07:07:37;;;;;;;9.00;8.10;;;;;;;;;;5072262;28;20220;-62
2022/08/25 07:10:10;;;;;;;9.63;8.57;;;;;;;;;;5062820;28;20258;-62
2022/08/25 07:12:38;;;;;;;8.27;7.47;;;;;;;;;;5060539;28;20235;-62
2022/08/25 07:15:06;;;;;;;9.40;7.60;;;;;;;;;;5057116;28;20208;-61
2022/08/25 07:17:46;;;;;;;9.50;7.90;;;;;;;;;;5066869;28;20231;-61
2022/08/25 07:20:14;;;;;;;8.75;7.85;;;;;;;;;;5077329;28;20580;-62
2022/08/25 07:22:42;;;;;;;8.45;7.63;;;;;;;;;;5059903;28;20235;-62
2022/08/25 07:25:10;;;;;;;10.13;7.25;;;;;;;;;;5061209;28;20211;-62
2022/08/25 07:27:38;;;;;;;8.32;7.53;;;;;;;;;;5063330;28;20752;-61
2022/08/25 07:30:09;;;;;;;7.97;7.28;;;;;;;;;;5068309;28;20209;-62
2022/08/25 07:32:37;;;;;;;7.75;7.05;;;;;;;;;;5064817;28;20299;-62
2022/08/25 07:35:16;;;;;;;7.80;7.00;;;;;;;;;;5065974;28;20250;-61
2022/08/25 07:37:50;;;;;;;7.78;6.97;;;;;;;;;;5065104;28;20234;-61
2022/08/25 07:40:21;;;;;;;9.70;7.00;;;;;;;;;;5079631;28;20224;-62
2022/08/25 07:42:50;;;;;;;10.48;7.35;;;;;;;;;;5068843;28;20258;-61
2022/08/25 07:45:18;;;;;;;7.78;7.07;;;;;;;;;;5068311;28;20228;-62
2022/08/25 07:47:47;;;;;;;8.25;6.78;;;;;;;;;;5068498;28;20214;-62
2022/08/25 07:50:17;;;;;;;8.48;6.80;;;;;;;;;;5067510;28;20325;-61
2022/08/25 07:52:45;;;;;;;7.57;6.88;;;;;;;;;;5074998;28;20201;-62
2022/08/25 07:55:20;;;;;;;8.55;7.25;;;;;;;;;;5076709;28;20674;-62
2022/08/25 07:57:47;;;;;;;7.13;6.10;;;;;;;;;;5068615;28;20626;-62
2022/08/25 08:00:21;;;;;;;7.13;6.43;;;;;;;;;;5065808;28;20666;-61
2022/08/25 08:02:50;;;;;;;6.68;5.97;;;;;;;;;;5072653;28;20625;-61
2022/08/25 08:05:20;;;;;;;6.60;5.97;;;;;;;;;;5066662;28;20412;-62
2022/08/25 08:07:50;;;;;;;9.10;6.40;;;;;;;;;;5075827;28;20208;-62
2022/08/25 08:10:17;;;;;;;6.55;5.50;;;;;;;;;;5059903;28;20266;-62
2022/08/25 08:13:05;;;;;;;7.60;5.50;;;;;;;;;;5072821;28;20203;-62
2022/08/25 08:15:34;;;;;;;5.80;5.15;;;;;;;;;;5072913;28;20202;-62
2022/08/25 08:18:02;;;;;;;5.90;5.40;;;;;;;;;;5081218;28;20807;-61
2022/08/25 08:20:32;;;;;;;5.82;5.05;;;;;;;;;;5087827;28;20269;-62
2022/08/25 08:23:10;;;;;;;8.13;4.63;;;;;;;;;;5066444;28;20626;-62
2022/08/25 08:25:37;;;;;;;6.20;4.70;;;;;;;;;;5073326;28;20201;-62
2022/08/25 08:28:05;;;;;;;5.15;4.13;;;;;;;;;;5069312;28;20220;-62
2022/08/25 08:30:35;;;;;;;4.72;4.00;;;;;;;;;;5059977;28;20312;-62
2022/08/25 08:33:04;;;;;;;5.60;4.25;;;;;;;;;;5067964;28;20216;-61
2022/08/25 08:35:37;;;;;;;5.55;4.00;;;;;;;;;;5057416;28;20596;-62
2022/08/25 08:38:05;;;;;;;4.57;4.18;;;;;;;;;;5062310;28;20237;-61
2022/08/25 08:43:50;;;;;;;4.65;4.25;;;;;;;;;;5079436;28;20562;-62
2022/08/25 08:46:19;;;;;;;4.63;4.15;;;;;;;;;;5052044;28;20263;-61
2022/08/25 08:48:46;;;;;;;5.00;4.57;;;;;;;;;;5067080;28;20686;-62
2022/08/25 08:51:24;;;;;;;5.20;4.50;;;;;;;;;;5059893;28;20271;-61
2022/08/25 08:54:13;;;;;;;4.78;4.38;;;;;;;;;;5066433;28;20293;-62
2022/08/25 08:56:44;;;;;;;4.65;4.25;;;;;;;;;;5065370;28;20204;-62
2022/08/25 08:59:26;;;;;;;4.68;4.10;;;;;;;;;;5078865;28;20264;-62
2022/08/25 09:02:00;;;;;;;5.40;4.90;;;;;;;;;;5083701;28;20233;-62
2022/08/25 09:04:38;;;;;;;4.82;4.35;;;;;;;;;;5054567;28;20210;-62
2022/08/25 09:07:10;;;;;;;4.63;3.95;;;;;;;;;;5058520;28;20201;-62
2022/08/25 09:09:39;;;;;;;5.32;3.63;;;;;;;;;;5074390;28;20348;-61
2022/08/25 09:12:13;;;;;;;3.63;3.15;;;;;;;;;;5065629;28;20228;-61
2022/08/25 09:14:46;;;;;;;4.50;3.60;;;;;;;;;;5060372;28;20238;-62
2022/08/25 09:17:39;;;;;;;4.00;3.60;;;;;;;;;;5088186;28;20212;-61
2022/08/25 09:20:16;;;;;;;5.00;3.85;;;;;;;;;;5067123;28;20205;-62
2022/08/25 09:22:50;;;;;;;4.00;3.70;;;;;;;;;;5067425;28;20331;-61
2022/08/25 09:25:20;;;;;;;4.50;4.07;;;;;;;;;;5065585;28;20206;-62
2022/08/25 09:28:08;;;;;;;4.13;3.80;;;;;;;;;;5070090;28;20227;-62
2022/08/25 09:30:52;;;;;;;4.63;3.65;;;;;;;;;;5066775;28;20231;-62
2022/08/25 09:33:21;;;;;;;3.95;3.60;;;;;;;;;;5065266;28;20331;-62
2022/08/25 09:35:50;;;;;;;3.72;3.42;;;;;;;;;;5069407;28;20772;-62
2022/08/25 09:38:19;;;;;;;3.70;3.40;;;;;;;;;;5065253;28;20229;-61
2022/08/25 09:40:49;;;;;;;6.28;3.50;;;;;;;;;;5075467;28;20241;-62
2022/08/25 09:43:19;;;;;;;3.80;3.50;;;;;;;;;;5064508;28;20219;-62
2022/08/25 09:45:48;;;;;;;4.13;3.58;;;;;;;;;;5065326;28;20619;-62
2022/08/25 09:48:26;;;;;;;3.45;3.15;;;;;;;;;;5085569;28;20204;-62
2022/08/25 09:51:01;;;;;;;3.30;3.00;;;;;;;;;;5068051;28;20234;-61
2022/08/25 09:53:31;;;;;;;3.30;3.10;;;;;;;;;;5064073;28;20208;-62
2022/08/25 09:56:03;;;;;;;6.22;3.30;;;;;;;;;;5056272;28;20286;-62
2022/08/25 09:58:31;;;;;;;3.42;2.78;;;;;;;;;;5063601;28;20233;-62
2022/08/25 10:01:03;;;;;;;5.25;3.30;;;;;;;;;;5058723;28;20221;-62
2022/08/25 10:03:31;;;;;;;3.88;3.58;;;;;;;;;;5055294;28;20200;-62
2022/08/25 10:06:07;;;;;;;5.20;3.40;;;;;;;;;;5065562;28;20262;-63
2022/08/25 10:08:39;;;;;;;3.90;3.50;;;;;;;;;;5084565;28;20682;-62
2022/08/25 10:11:13;;;;;;;3.58;3.28;;;;;;;;;;5057320;28;20229;-62
2022/08/25 10:13:46;;;;;;;4.45;3.22;;;;;;;;;;5057184;28;20232;-62
2022/08/25 10:16:22;;;;;;;3.42;3.13;;;;;;;;;;5050117;28;20212;-62
2022/08/25 10:19:01;;;;;;;2.95;2.75;;;;;;;;;;5059302;28;20224;-62
2022/08/25 10:21:28;;;;;;;3.17;2.97;;;;;;;;;;5067330;28;20232;-62
2022/08/25 10:23:56;;;;;;;3.70;2.88;;;;;;;;;;5062271;28;20287;-62
2022/08/25 10:26:42;;;;;;;3.30;3.10;;;;;;;;;;5065217;28;20212;-62
2022/08/25 10:29:19;;;;;;;3.40;3.15;;;;;;;;;;5047878;28;20212;-62
2022/08/25 10:31:55;;;;;;;3.22;3.03;;;;;;;;;;5065836;28;20220;-61
2022/08/25 10:34:22;;;;;;;3.42;2.85;;;;;;;;;;5068763;28;20207;-62
2022/08/25 10:36:51;;;;;;;3.25;2.90;;;;;;;;;;5084540;28;20216;-62
2022/08/25 10:39:33;;;;;;;4.95;2.60;;;;;;;;;;5087176;28;20244;-61
2022/08/25 10:42:25;;;;;;;2.90;2.70;;;;;;;;;;5067565;28;20252;-62
2022/08/25 10:47:59;;;;;;;2.80;2.60;;;;;;;;;;5077549;28;20252;-62
2022/08/25 10:50:36;;;;;;;3.22;3.03;;;;;;;;;;5082362;28;20224;-62
2022/08/25 10:53:07;;;;;;;2.50;2.30;;;;;;;;;;5060255;28;20251;-62
2022/08/25 10:55:51;;;;;;;3.05;2.63;;;;;;;;;;5080040;28;20240;-62
2022/08/25 10:58:28;;;;;;;3.00;2.80;;;;;;;;;;5067227;28;20235;-62
2022/08/25 11:01:10;;;;;;;3.08;2.70;;;;;;;;;;5057380;28;20221;-62
2022/08/25 11:03:47;;;;;;;3.55;3.25;;;;;;;;;;5080980;28;20296;-62
2022/08/25 11:06:20;;;;;;;3.05;2.75;;;;;;;;;;5067439;28;20204;-61
2022/08/25 11:08:51;;;;;;;3.20;2.90;;;;;;;;;;5088865;28;20432;-62
2022/08/25 11:11:28;;;;;;;2.53;2.33;;;;;;;;;;5067137;28;20224;-62
2022/08/25 11:14:02;;;;;;;2.40;2.25;;;;;;;;;;5060461;28;20196;-62
2022/08/25 11:16:46;;;;;;;3.30;2.45;;;;;;;;;;5064032;28;20258;-61
2022/08/25 11:19:17;;;;;;;3.08;2.78;;;;;;;;;;5065756;28;20724;-62
2022/08/25 11:21:48;;;;;;;2.80;2.60;;;;;;;;;;5062727;28;20283;-62
2022/08/25 11:24:36;;;;;;;3.65;2.70;;;;;;;;;;5064195;28;20270;-61
2022/08/25 11:27:05;;;;;;;3.25;2.15;;;;;;;;;;5058569;28;20258;-61
2022/08/25 11:29:35;;;;;;;3.28;2.78;;;;;;;;;;5051957;28;20278;-60
2022/08/25 11:32:03;;;;;;;2.50;2.30;;;;;;;;;;5064725;28;20239;-62
2022/08/25 11:34:32;;;;;;;3.38;3.13;;;;;;;;;;5074352;28;20627;-62
2022/08/25 11:37:06;;;;;;;3.00;2.72;;;;;;;;;;5087268;28;20220;-61
2022/08/25 11:39:52;;;;;;;2.75;2.50;;;;;;;;;;5062978;28;20212;-60
2022/08/25 11:42:46;;;;;;;2.50;2.38;;;;;;;;;;5060720;28;20922;-61
2022/08/25 11:45:23;;;;;;;4.75;2.75;;;;;;;;;;5047675;28;20209;-61
2022/08/25 11:47:51;;;;;;;2.95;2.75;;;;;;;;;;5068479;28;20657;-61
2022/08/25 11:50:24;;;;;;;2.70;2.47;;;;;;;;;;5081756;28;20624;-62
2022/08/25 11:53:23;;;;;;;2.15;2.05;;;;;;;;;;5066131;28;20296;-62
2022/08/25 11:55:57;;;;;;;2.55;2.28;;;;;;;;;;5055885;28;20305;-62
2022/08/25 11:58:28;;;;;;;4.30;2.55;;;;;;;;;;5065772;28;20252;-61
2022/08/25 12:00:58;;;;;;;2.63;2.42;;;;;;;;;;5065206;28;20214;-61
2022/08/25 12:03:35;;;;;;;1.90;1.80;;;;;;;;;;5047840;28;20270;-61
2022/08/25 12:06:14;;;;;;;3.15;2.00;;;;;;;;;;5073789;28;20216;-62
2022/08/25 12:09:14;;;;;;;3.22;2.55;;;;;;;;;;5068174;28;20262;-60
2022/08/25 12:11:41;;;;;;;4.97;2.20;;;;;;;;;;5064602;28;20228;-61
2022/08/25 12:14:38;;;;;;;3.72;2.65;;;;;;;;;;5059439;28;20687;-61
2022/08/25 12:17:16;;;;;;;3.47;2.80;;;;;;;;;;5057003;28;20245;-61
2022/08/25 12:19:43;;;;;;;3.40;2.58;;;;;;;;;;5064714;28;20256;-61
2022/08/25 12:22:11;;;;;;;2.67;2.47;;;;;;;;;;5063759;28;20229;-61
2022/08/25 12:24:44;;;;;;;4.68;2.30;;;;;;;;;;5062128;28;20205;-61
2022/08/25 12:27:27;;;;;;;2.63;2.40;;;;;;;;;;5093796;28;20205;-60
2022/08/25 12:30:05;;;;;;;3.08;2.60;;;;;;;;;;5076531;28;20579;-61
2022/08/25 12:32:32;;;;;;;3.45;2.28;;;;;;;;;;5055750;28;20254;-61
2022/08/25 12:35:15;;;;;;;2.80;2.40;;;;;;;;;;5055020;28;20205;-61
2022/08/25 12:38:03;;;;;;;2.55;2.40;;;;;;;;;;5066421;28;20207;-61
2022/08/25 12:40:51;;;;;;;3.50;2.60;;;;;;;;;;5070949;28;20290;-60
2022/08/25 12:43:19;;;;;;;2.80;2.40;;;;;;;;;;5026622;28;20700;-61
2022/08/25 12:45:51;;;;;;;2.70;2.50;;;;;;;;;;5070785;28;20694;-63
2022/08/25 12:48:29;;;;;;;2.50;2.30;;;;;;;;;;5093034;28;20205;-61
2022/08/25 12:51:00;;;;;;;2.70;2.50;;;;;;;;;;5055390;28;20221;-61
2022/08/25 12:53:46;;;;;;;2.28;2.17;;;;;;;;;;5060167;28;20651;-62
2022/08/25 12:56:35;;;;;;;2.40;2.20;;;;;;;;;;5067428;28;20204;-62
2022/08/25 12:59:05;;;;;;;2.58;2.47;;;;;;;;;;5063516;28;20225;-63
2022/08/25 13:01:33;;;;;;;3.10;2.80;;;;;;;;;;5074991;28;20216;-62
2022/08/25 13:04:21;;;;;;;3.20;2.58;;;;;;;;;;5058225;28;20205;-62
2022/08/25 13:06:54;;;;;;;4.25;2.83;;;;;;;;;;5054675;28;20201;-62
2022/08/25 13:09:34;;;;;;;2.45;2.35;;;;;;;;;;5061942;28;20279;-61
2022/08/25 13:12:20;;;;;;;3.08;2.75;;;;;;;;;;5067309;28;20331;-62
2022/08/25 13:14:55;;;;;;;3.17;2.35;;;;;;;;;;5070421;28;20229;-61
2022/08/25 13:17:30;;;;;;;2.92;2.72;;;;;;;;;;5052342;28;20224;-61
2022/08/25 13:20:13;;;;;;;2.63;2.42;;;;;;;;;;5062839;28;20311;-62
2022/08/25 13:22:43;;;;;;;2.80;2.58;;;;;;;;;;5078813;28;20201;-61
2022/08/25 13:25:15;;;;;;;5.15;2.70;;;;;;;;;;5061692;28;20619;-61
2022/08/25 13:27:50;;;;;;;2.88;2.67;;;;;;;;;;5060176;28;20232;-62
2022/08/25 13:30:44;;;;;;;3.67;2.83;;;;;;;;;;5063384;28;20205;-62
2022/08/25 13:33:16;;;;;;;3.08;2.65;;;;;;;;;;5058322;28;20650;-62
2022/08/25 13:38:39;;;;;;;3.00;2.80;;;;;;;;;;5082241;28;20212;-63
2022/08/25 13:41:17;;;;;;;2.80;2.60;;;;;;;;;;5058561;28;20733;-62
2022/08/25 13:43:44;;;;;;;2.97;2.78;;;;;;;;;;5055606;28;20209;-63
2022/08/25 13:46:11;;;;;;;3.55;2.90;;;;;;;;;;5072662;28;20239;-62
2022/08/25 13:48:41;;;;;;;3.47;2.50;;;;;;;;;;5060439;28;20217;-61
2022/08/25 13:51:21;;;;;;;7.45;2.40;;;;;;;;;;5062159;28;20514;-62
2022/08/25 13:53:51;;;;;;;3.70;2.80;;;;;;;;;;5059107;28;20734;-63
2022/08/25 13:56:46;;;;;;;2.90;2.70;;;;;;;;;;5064486;28;20197;-62
2022/08/25 13:59:23;;;;;;;2.92;2.70;;;;;;;;;;5056913;28;20228;-63
2022/08/25 14:01:51;;;;;;;3.25;2.80;;;;;;;;;;5054607;28;20232;-62
2022/08/25 14:04:23;;;;;;;2.70;2.50;;;;;;;;;;5073363;28;20663;-61
2022/08/25 14:07:06;;;;;;;5.20;2.70;;;;;;;;;;5066793;28;20274;-61
2022/08/25 14:09:39;;;;;;;4.65;2.42;;;;;;;;;;5053567;28;20213;-61
2022/08/25 14:12:07;;;;;;;3.80;2.60;;;;;;;;;;5063860;28;20260;-61
2022/08/25 14:14:35;;;;;;;3.60;2.47;;;;;;;;;;5075366;28;20238;-61
2022/08/25 14:17:09;;;;;;;3.50;2.80;;;;;;;;;;5067771;28;20213;-61
2022/08/25 14:19:57;;;;;;;4.47;2.58;;;;;;;;;;5069944;28;20919;-63
2022/08/25 14:22:25;;;;;;;2.72;2.53;;;;;;;;;;5068481;28;20202;-61
2022/08/25 14:24:53;;;;;;;3.00;2.63;;;;;;;;;;5084159;28;20700;-61
2022/08/25 14:27:21;;;;;;;3.10;2.80;;;;;;;;;;5060129;28;20711;-63
2022/08/25 14:29:48;;;;;;;3.85;2.60;;;;;;;;;;5065662;28;20212;-61
2022/08/25 14:32:19;;;;;;;2.90;2.70;;;;;;;;;;5079569;28;20231;-61
2022/08/25 14:34:46;;;;;;;2.92;2.60;;;;;;;;;;5069509;28;20201;-63
2022/08/25 14:37:18;;;;;;;2.85;2.65;;;;;;;;;;5053115;28;20690;-61
2022/08/25 14:39:53;;;;;;;4.13;3.10;;;;;;;;;;5069600;28;20232;-60
2022/08/25 14:42:21;;;;;;;2.90;2.70;;;;;;;;;;5063439;28;20680;-61
2022/08/25 14:44:51;;;;;;;6.07;3.30;;;;;;;;;;5063866;28;20208;-60
2022/08/25 14:47:19;;;;;;;3.65;2.90;;;;;;;;;;5059143;28;20569;-61
2022/08/25 14:49:48;;;;;;;3.17;2.85;;;;;;;;;;5059989;28;20207;-61
2022/08/25 14:52:19;;;;;;;3.05;2.75;;;;;;;;;;5055013;28;20625;-61
2022/08/25 14:54:49;;;;;;;2.88;2.67;;;;;;;;;;5057795;28;20244;-61
2022/08/25 14:57:17;;;;;;;4.75;2.88;;;;;;;;;;5061986;28;20212;-60
2022/08/25 14:59:45;;;;;;;2.60;2.50;;;;;;;;;;5064889;28;20235;-62
2022/08/25 15:02:17;;;;;;;2.65;2.42;;;;;;;;;;5064811;28;20225;-60
2022/08/25 15:04:52;;;;;;;2.70;2.50;;;;;;;;;;5057321;28;20682;-59
2022/08/25 15:10:07;;;;;;;3.20;2.67;;;;;;;;;;5069805;28;20258;-61
2022/08/25 15:12:34;;;;;;;2.80;2.60;;;;;;;;;;5056647;28;20870;-61
2022/08/25 15:15:14;;;;;;;3.17;2.63;;;;;;;;;;5063605;28;20201;-60
2022/08/25 15:17:42;;;;;;;4.85;2.70;;;;;;;;;;5067873;28;20287;-60
2022/08/25 15:20:11;;;;;;;2.90;2.60;;;;;;;;;;5054858;28;20293;-61